Time;durP1;ratioP1;P1;durP2;ratioP2;P2;SDS_P1;SDS_P2;PMS_P1;PMS_P2;Temp;Humidity;BMP_temperature;BMP_pressure;BME280_temperature;BME280_humidity;BME280_pressure;Samples;Min_cycle;Max_cycle;Signal;HPM_P1;HPM_P2
2022/09/19 00:01:11;;;;;;;5.18;3.45;;;10.90;99.90;;;;;;5045706;28;20199;-72
2022/09/19 00:03:38;;;;;;;9.45;2.85;;;10.80;99.90;;;;;;5049434;28;20650;-72
2022/09/19 00:06:06;;;;;;;4.50;2.05;;;10.90;99.90;;;;;;5039573;28;20324;-72
2022/09/19 00:08:34;;;;;;;8.40;2.40;;;10.80;99.90;;;;;;5045451;28;20306;-73
2022/09/19 00:11:05;;;;;;;5.05;2.42;;;10.80;99.90;;;;;;5051992;28;20574;-73
2022/09/19 00:13:33;;;;;;;6.10;2.45;;;10.80;99.90;;;;;;5044566;28;20522;-73
2022/09/19 00:16:00;;;;;;;6.07;2.50;;;10.70;99.90;;;;;;5046205;28;20240;-73
2022/09/19 00:18:28;;;;;;;11.15;2.45;;;10.70;99.90;;;;;;5043029;28;20231;-71
2022/09/19 00:20:55;;;;;;;5.03;2.60;;;10.70;99.90;;;;;;5045519;28;20241;-72
2022/09/19 00:26:11;;;;;;;6.60;2.50;;;10.70;99.90;;;;;;5043756;28;20206;-73
2022/09/19 00:28:38;;;;;;;11.05;3.30;;;10.70;99.90;;;;;;5037824;28;20233;-74
2022/09/19 00:31:06;;;;;;;9.45;2.95;;;10.70;99.90;;;;;;5035951;28;20683;-74
2022/09/19 00:33:35;;;;;;;6.15;2.90;;;10.70;99.90;;;;;;5042407;28;20199;-74
2022/09/19 00:36:03;;;;;;;6.70;2.53;;;10.70;99.90;;;;;;5042221;28;20225;-72
2022/09/19 00:38:32;;;;;;;6.40;2.80;;;10.70;99.90;;;;;;5044603;28;20246;-74
2022/09/19 00:40:59;;;;;;;9.38;2.30;;;10.70;99.90;;;;;;5050998;28;20206;-72
2022/09/19 00:43:48;;;;;;;2.85;1.73;;;10.70;99.90;;;;;;5054821;28;20243;-72
2022/09/19 00:46:16;;;;;;;7.38;3.70;;;10.70;99.90;;;;;;5045678;28;20279;-74
2022/09/19 00:48:45;;;;;;;8.73;3.28;;;10.70;99.90;;;;;;5055552;28;20312;-71
2022/09/19 00:51:17;;;;;;;2.95;2.30;;;10.80;99.90;;;;;;5054775;28;20254;-73
2022/09/19 00:53:45;;;;;;;5.85;3.35;;;10.70;99.90;;;;;;5052613;28;20235;-70
2022/09/19 00:56:15;;;;;;;5.22;2.38;;;10.70;99.90;;;;;;5055990;28;20290;-72
2022/09/19 00:58:46;;;;;;;8.55;4.32;;;10.60;99.90;;;;;;5054742;28;20557;-75
2022/09/19 01:01:15;;;;;;;9.05;3.33;;;10.70;99.90;;;;;;5058697;28;20271;-69
2022/09/19 01:03:47;;;;;;;3.97;2.20;;;10.60;99.90;;;;;;5064577;28;20202;-74
2022/09/19 01:06:35;;;;;;;7.15;2.25;;;10.60;99.90;;;;;;5056098;28;20216;-72
2022/09/19 01:09:15;;;;;;;7.22;3.53;;;10.60;99.90;;;;;;5038915;28;20247;-72
2022/09/19 01:12:05;;;;;;;5.70;2.83;;;10.60;99.90;;;;;;5035442;28;20283;-72
2022/09/19 01:14:51;;;;;;;10.68;2.38;;;10.60;99.90;;;;;;5025187;28;20291;-73
2022/09/19 01:17:25;;;;;;;5.90;1.88;;;10.60;99.90;;;;;;5039802;28;20660;-71
2022/09/19 01:20:39;;;;;;;6.30;2.65;;;10.60;99.90;;;;;;5031963;28;20259;-68
2022/09/19 01:23:36;;;;;;;8.20;2.40;;;10.70;99.90;;;;;;5051369;28;20291;-70
2022/09/19 01:26:15;;;;;;;10.68;2.42;;;10.70;99.90;;;;;;5058034;28;20267;-71
2022/09/19 01:28:49;;;;;;;7.43;2.00;;;10.70;99.90;;;;;;5022874;28;20231;-70
2022/09/19 01:31:22;;;;;;;3.83;1.63;;;10.80;99.90;;;;;;5032573;28;20276;-73
2022/09/19 01:33:57;;;;;;;2.35;1.52;;;10.80;99.90;;;;;;5044204;28;20299;-75
2022/09/19 01:36:28;;;;;;;7.28;1.67;;;10.90;99.90;;;;;;5045652;28;20280;-70
2022/09/19 01:38:57;;;;;;;10.20;1.80;;;10.90;99.90;;;;;;5051589;28;20210;-73
2022/09/19 01:41:24;;;;;;;5.35;2.30;;;11.00;99.90;;;;;;5045154;28;20658;-73
2022/09/19 01:43:53;;;;;;;5.03;2.90;;;11.00;99.90;;;;;;5038000;28;20292;-74
2022/09/19 01:46:27;;;;;;;5.18;2.92;;;11.00;99.90;;;;;;5047353;28;20642;-73
2022/09/19 01:49:06;;;;;;;4.97;2.45;;;11.10;99.90;;;;;;5043347;28;20609;-76
2022/09/19 01:51:39;;;;;;;6.43;2.33;;;11.10;99.90;;;;;;5027018;28;20600;-72
2022/09/19 01:54:16;;;;;;;5.07;2.42;;;11.10;99.90;;;;;;5041228;28;20217;-71
2022/09/19 01:56:54;;;;;;;7.68;2.00;;;11.20;99.90;;;;;;5045651;28;20311;-74
2022/09/19 01:59:43;;;;;;;6.53;2.17;;;11.20;99.90;;;;;;5023759;28;20692;-72
2022/09/19 02:02:21;;;;;;;4.15;1.90;;;11.30;99.90;;;;;;5021637;28;20204;-73
2022/09/19 02:04:52;;;;;;;4.00;2.10;;;11.30;99.90;;;;;;5041096;28;20225;-70
2022/09/19 02:07:25;;;;;;;9.65;2.25;;;11.40;99.90;;;;;;5042648;28;20331;-70
2022/09/19 02:10:00;;;;;;;7.95;1.95;;;11.40;99.90;;;;;;5046211;28;20223;-71
2022/09/19 02:12:30;;;;;;;3.58;2.42;;;11.50;99.90;;;;;;5023354;28;20254;-74
2022/09/19 02:15:03;;;;;;;6.53;2.35;;;11.50;99.90;;;;;;5041844;28;20581;-70
2022/09/19 02:17:44;;;;;;;3.15;2.20;;;11.60;99.90;;;;;;5037315;28;20230;-70
2022/09/19 02:20:16;;;;;;;9.77;2.78;;;11.60;99.90;;;;;;5034843;28;20207;-71
2022/09/19 02:22:48;;;;;;;8.05;1.95;;;11.70;99.90;;;;;;5036354;28;20204;-73
2022/09/19 02:25:23;;;;;;;8.15;2.20;;;11.70;99.90;;;;;;5035185;28;20220;-71
2022/09/19 02:27:54;;;;;;;5.32;1.67;;;11.70;99.90;;;;;;5039534;28;20312;-71
2022/09/19 02:30:23;;;;;;;7.60;2.10;;;11.70;99.90;;;;;;5038564;28;20256;-71
2022/09/19 02:32:51;;;;;;;5.00;1.38;;;11.80;99.90;;;;;;5035351;28;20301;-69
2022/09/19 02:35:31;;;;;;;6.60;1.77;;;11.80;99.90;;;;;;5049997;28;20205;-70
2022/09/19 02:38:02;;;;;;;6.88;1.90;;;11.90;99.90;;;;;;5022934;28;20643;-72
2022/09/19 02:40:35;;;;;;;4.35;2.35;;;11.90;99.90;;;;;;5035642;28;20295;-69
2022/09/19 02:43:10;;;;;;;8.05;3.08;;;11.90;99.90;;;;;;5040751;28;20205;-72
2022/09/19 02:45:42;;;;;;;9.27;2.53;;;11.90;99.90;;;;;;5033164;28;20662;-70
2022/09/19 02:48:12;;;;;;;6.88;2.65;;;12.00;99.90;;;;;;5047871;28;20224;-73
2022/09/19 02:50:44;;;;;;;8.73;2.10;;;12.00;99.90;;;;;;5049142;28;20232;-72
2022/09/19 02:53:14;;;;;;;5.57;2.45;;;12.10;99.90;;;;;;5037993;28;20618;-72
2022/09/19 02:55:46;;;;;;;12.15;2.25;;;12.10;99.90;;;;;;5041843;28;20195;-74
2022/09/19 02:58:16;;;;;;;10.75;3.10;;;12.10;99.90;;;;;;5034867;28;20592;-71
2022/09/19 03:00:51;;;;;;;5.32;1.67;;;12.20;99.90;;;;;;5036625;28;20244;-71
2022/09/19 03:06:10;;;;;;;3.85;1.70;;;12.20;99.90;;;;;;5037440;28;20317;-68
2022/09/19 03:08:38;;;;;;;12.57;2.20;;;12.20;99.90;;;;;;5035983;28;20593;-70
2022/09/19 03:11:09;;;;;;;5.97;1.70;;;12.30;99.90;;;;;;5039953;28;20200;-72
2022/09/19 03:13:38;;;;;;;8.93;1.70;;;12.30;99.90;;;;;;5037754;28;20285;-72
2022/09/19 03:16:09;;;;;;;13.38;2.33;;;12.20;99.90;;;;;;5048450;28;20260;-72
2022/09/19 03:18:38;;;;;;;9.93;1.63;;;12.30;99.90;;;;;;5035964;28;20308;-71
2022/09/19 03:21:10;;;;;;;6.75;1.75;;;12.30;99.90;;;;;;5035218;28;20202;-72
2022/09/19 03:23:41;;;;;;;7.80;1.50;;;12.30;99.90;;;;;;5044608;28;20233;-72
2022/09/19 03:26:12;;;;;;;8.88;1.52;;;12.20;99.90;;;;;;5035578;28;20214;-70
2022/09/19 03:28:39;;;;;;;3.40;1.40;;;12.20;99.90;;;;;;5035595;28;20253;-71
2022/09/19 03:31:07;;;;;;;7.88;1.70;;;12.20;99.90;;;;;;5036346;28;20300;-71
2022/09/19 03:33:35;;;;;;;5.75;1.50;;;12.20;99.90;;;;;;5041832;28;20661;-74
2022/09/19 03:36:06;;;;;;;6.85;1.55;;;12.20;99.90;;;;;;5038478;28;20657;-72
2022/09/19 03:38:33;;;;;;;6.97;1.38;;;12.10;99.90;;;;;;5043298;28;20301;-73
2022/09/19 03:41:00;;;;;;;8.52;1.70;;;12.10;99.90;;;;;;5046846;28;20211;-72
2022/09/19 03:43:27;;;;;;;3.38;1.90;;;12.10;99.90;;;;;;5042565;28;20211;-70
2022/09/19 03:45:54;;;;;;;4.82;1.17;;;12.10;99.90;;;;;;5034753;28;20226;-73
2022/09/19 03:48:22;;;;;;;7.47;2.10;;;12.10;99.90;;;;;;5034450;28;20411;-72
2022/09/19 03:50:49;;;;;;;4.20;1.65;;;12.10;99.90;;;;;;5037062;28;20517;-69
2022/09/19 03:53:19;;;;;;;7.10;1.88;;;12.00;99.90;;;;;;5037197;28;20209;-74
2022/09/19 03:55:46;;;;;;;5.32;1.48;;;12.00;99.90;;;;;;5048145;28;20212;-72
2022/09/19 03:58:13;;;;;;;9.57;2.75;;;12.00;99.90;;;;;;5039725;28;20659;-69
2022/09/19 04:00:40;;;;;;;3.50;1.40;;;11.90;99.90;;;;;;5036716;28;20204;-72
2022/09/19 04:03:08;;;;;;;5.22;2.38;;;11.90;99.90;;;;;;5052423;28;20301;-70
2022/09/19 04:05:36;;;;;;;7.07;1.50;;;11.90;99.90;;;;;;5050586;28;20272;-69
2022/09/19 04:08:03;;;;;;;5.72;1.88;;;12.00;99.90;;;;;;5047256;28;20290;-71
2022/09/19 04:10:30;;;;;;;14.85;2.22;;;11.90;99.90;;;;;;5038851;28;20193;-72
2022/09/19 04:12:57;;;;;;;4.90;1.90;;;11.90;99.90;;;;;;5049672;28;20215;-72
2022/09/19 04:15:24;;;;;;;10.18;1.50;;;11.90;99.90;;;;;;5054354;28;20217;-69
2022/09/19 04:17:51;;;;;;;6.85;2.33;;;11.90;99.90;;;;;;5053852;28;20227;-71
2022/09/19 04:20:19;;;;;;;5.63;1.65;;;11.90;99.90;;;;;;5049742;28;20286;-72
2022/09/19 04:22:48;;;;;;;3.88;1.45;;;11.80;99.90;;;;;;5046318;28;20197;-71
2022/09/19 04:25:15;;;;;;;5.88;2.20;;;11.90;99.90;;;;;;5049026;28;20220;-69
2022/09/19 04:27:44;;;;;;;5.68;1.70;;;11.80;99.90;;;;;;5048416;28;20269;-73
2022/09/19 04:30:12;;;;;;;6.47;1.77;;;11.80;99.90;;;;;;5039368;28;20207;-72
2022/09/19 04:32:41;;;;;;;6.18;2.78;;;11.80;99.90;;;;;;5040446;28;20213;-70
2022/09/19 04:35:08;;;;;;;5.22;1.40;;;11.70;99.90;;;;;;5051236;28;20288;-71
2022/09/19 04:37:35;;;;;;;4.75;2.65;;;11.70;99.90;;;;;;5049424;28;20321;-71
2022/09/19 04:40:04;;;;;;;4.78;1.90;;;11.60;99.90;;;;;;5054499;28;20292;-72
2022/09/19 04:42:33;;;;;;;13.57;2.88;;;11.50;99.90;;;;;;5054183;28;20289;-70
2022/09/19 04:45:00;;;;;;;8.07;2.67;;;11.50;99.90;;;;;;5053382;28;20574;-70
2022/09/19 04:47:28;;;;;;;10.98;3.03;;;11.50;99.90;;;;;;5044616;28;20223;-74
2022/09/19 04:49:56;;;;;;;4.93;1.95;;;11.40;99.90;;;;;;5042388;28;20703;-69
2022/09/19 04:52:23;;;;;;;9.23;3.25;;;11.40;99.90;;;;;;5045168;28;20703;-71
2022/09/19 04:54:51;;;;;;;5.50;2.50;;;11.30;99.90;;;;;;5044122;28;20254;-71
2022/09/19 04:57:19;;;;;;;6.70;3.13;;;11.30;99.90;;;;;;5045886;28;20259;-74
2022/09/19 04:59:46;;;;;;;6.25;1.83;;;11.20;99.90;;;;;;5046320;28;20286;-71
2022/09/19 05:02:14;;;;;;;12.20;2.50;;;11.20;99.90;;;;;;5044309;28;20290;-75
2022/09/19 05:04:45;;;;;;;7.47;2.88;;;11.20;99.90;;;;;;5050383;28;20583;-72
2022/09/19 05:07:13;;;;;;;15.52;2.92;;;11.10;99.90;;;;;;5040825;28;20225;-72
2022/09/19 05:09:41;;;;;;;12.23;3.40;;;11.10;99.90;;;;;;5020757;28;20216;-70
2022/09/19 05:12:09;;;;;;;10.32;3.00;;;11.00;99.90;;;;;;5049938;28;20204;-72
2022/09/19 05:14:37;;;;;;;6.97;2.75;;;11.00;99.90;;;;;;5043633;28;20217;-71
2022/09/19 05:17:04;;;;;;;10.80;2.78;;;11.00;99.90;;;;;;5046429;28;20585;-71
2022/09/19 05:19:32;;;;;;;11.43;2.75;;;10.90;99.90;;;;;;5048524;28;20299;-74
2022/09/19 05:21:58;;;;;;;12.50;4.22;;;10.90;99.90;;;;;;5039095;28;20215;-70
2022/09/19 05:24:26;;;;;;;5.50;2.58;;;10.90;99.90;;;;;;5043833;28;20204;-68
2022/09/19 05:26:56;;;;;;;11.40;3.65;;;11.00;99.90;;;;;;5039396;28;20228;-70
2022/09/19 05:29:23;;;;;;;10.32;3.88;;;10.90;99.90;;;;;;5040957;28;20207;-69
2022/09/19 05:31:54;;;;;;;9.25;2.97;;;10.90;99.90;;;;;;5044842;28;20295;-72
2022/09/19 05:34:21;;;;;;;10.27;2.95;;;10.80;99.90;;;;;;5048640;28;20202;-73
2022/09/19 05:36:48;;;;;;;10.75;3.17;;;10.90;99.90;;;;;;5043088;28;20217;-70
2022/09/19 05:39:15;;;;;;;10.80;3.70;;;10.90;99.90;;;;;;5042415;28;20219;-73
2022/09/19 05:41:42;;;;;;;11.65;5.18;;;10.90;99.90;;;;;;5046426;28;20202;-68
2022/09/19 05:44:09;;;;;;;14.35;4.72;;;10.90;99.90;;;;;;5047792;28;20231;-67
2022/09/19 05:46:36;;;;;;;15.30;4.18;;;11.00;99.90;;;;;;5045740;28;20251;-69
2022/09/19 05:49:05;;;;;;;19.55;3.90;;;11.00;99.90;;;;;;5050667;28;20674;-69
2022/09/19 05:51:33;;;;;;;10.43;4.70;;;11.00;99.90;;;;;;5049910;28;20259;-69
2022/09/19 05:53:59;;;;;;;9.73;3.53;;;11.00;99.90;;;;;;5054622;28;20262;-69
2022/09/19 05:56:26;;;;;;;6.72;4.10;;;11.10;99.90;;;;;;5053704;28;20312;-68
2022/09/19 05:58:54;;;;;;;6.85;2.97;;;11.10;99.90;;;;;;5041395;28;20555;-70
2022/09/19 06:01:22;;;;;;;15.85;4.38;;;11.10;99.90;;;;;;5053157;28;20221;-70
2022/09/19 06:03:49;;;;;;;12.65;3.53;;;11.30;99.90;;;;;;5051609;28;20202;-69
2022/09/19 06:06:19;;;;;;;14.82;3.83;;;11.90;99.90;;;;;;5048824;28;20305;-72
2022/09/19 06:08:48;;;;;;;11.73;3.60;;;12.50;99.90;;;;;;5050511;28;20283;-68
2022/09/19 06:11:15;;;;;;;7.10;2.20;;;13.30;99.90;;;;;;5053793;28;20262;-67
2022/09/19 06:16:30;;;;;;;8.90;3.15;;;15.10;99.90;;;;;;5038796;28;20735;-71
2022/09/19 06:18:57;;;;;;;9.33;2.63;;;16.00;99.90;;;;;;5044907;28;20206;-71
2022/09/19 06:21:25;;;;;;;6.30;2.37;;;16.80;99.90;;;;;;5048689;28;20441;-74
2022/09/19 06:23:52;;;;;;;11.90;3.00;;;17.50;99.90;;;;;;5050356;28;20521;-70
2022/09/19 06:26:20;;;;;;;7.03;2.33;;;18.30;99.90;;;;;;5065628;28;20481;-76
2022/09/19 06:28:48;;;;;;;6.70;2.83;;;19.10;99.90;;;;;;5049366;28;20438;-76
2022/09/19 06:31:16;;;;;;;9.67;3.30;;;19.80;99.90;;;;;;5044795;28;20471;-69
2022/09/19 06:33:43;;;;;;;8.83;2.97;;;20.70;99.90;;;;;;5039376;28;20917;-71
2022/09/19 06:36:12;;;;;;;9.27;3.43;;;21.20;99.30;;;;;;5035252;28;20454;-72
2022/09/19 06:38:41;;;;;;;13.90;2.70;;;21.70;98.00;;;;;;5050354;28;20561;-74
2022/09/19 06:41:09;;;;;;;9.17;2.73;;;21.90;96.40;;;;;;5042902;28;20955;-74
2022/09/19 06:43:36;;;;;;;13.33;3.07;;;22.40;95.30;;;;;;5052358;28;20449;-73
2022/09/19 06:46:04;;;;;;;7.53;3.10;;;22.70;94.20;;;;;;5037276;28;20859;-74
2022/09/19 06:48:31;;;;;;;9.03;2.23;;;23.00;93.90;;;;;;5032259;28;20554;-70
2022/09/19 06:50:58;;;;;;;6.10;2.90;;;23.30;92.40;;;;;;5035845;28;20976;-69
2022/09/19 06:53:27;;;;;;;15.07;2.73;;;23.00;92.20;;;;;;5043364;28;20450;-74
2022/09/19 06:55:56;;;;;;;8.10;2.60;;;23.50;91.90;;;;;;5044086;28;20507;-71
2022/09/19 06:58:24;;;;;;;12.20;2.57;;;23.80;91.20;;;;;;5040216;28;20561;-75
2022/09/19 07:00:51;;;;;;;6.07;2.60;;;24.10;91.00;;;;;;5047538;28;20876;-73
2022/09/19 07:03:19;;;;;;;9.87;3.23;;;24.60;90.50;;;;;;5041074;28;20446;-74
2022/09/19 07:05:47;;;;;;;8.87;2.97;;;25.00;89.10;;;;;;5042221;28;20458;-71
2022/09/19 07:08:15;;;;;;;8.90;3.07;;;25.30;87.30;;;;;;5049240;28;20470;-69
2022/09/19 07:10:42;;;;;;;9.43;2.37;;;25.10;87.80;;;;;;5044614;28;20442;-71
2022/09/19 07:13:14;;;;;;;8.97;3.33;;;25.10;87.90;;;;;;5040030;28;20550;-71
2022/09/19 07:15:42;;;;;;;13.43;3.00;;;25.50;86.80;;;;;;5043618;28;20490;-69
2022/09/19 07:18:10;;;;;;;9.17;2.70;;;25.60;85.60;;;;;;5042904;28;20462;-73
2022/09/19 07:20:38;;;;;;;13.23;3.00;;;25.80;85.60;;;;;;5040410;28;20465;-73
2022/09/19 07:23:07;;;;;;;9.40;2.73;;;25.80;85.20;;;;;;5040667;28;20867;-71
2022/09/19 07:25:34;;;;;;;6.77;2.73;;;26.20;84.80;;;;;;5035569;28;21012;-71
2022/09/19 07:28:03;;;;;;;7.93;2.90;;;26.60;84.10;;;;;;5041105;28;20665;-71
2022/09/19 07:30:32;;;;;;;10.93;2.50;;;27.10;82.20;;;;;;5038656;28;20442;-71
2022/09/19 07:33:00;;;;;;;10.87;3.23;;;27.20;81.50;;;;;;5042898;28;20460;-76
2022/09/19 07:35:30;;;;;;;8.47;2.80;;;27.10;81.30;;;;;;5043202;28;20474;-70
2022/09/19 07:37:57;;;;;;;11.43;2.87;;;27.20;80.80;;;;;;5041345;28;20488;-69
2022/09/19 07:40:24;;;;;;;14.00;3.40;;;26.90;80.80;;;;;;5042584;28;20446;-71
2022/09/19 07:42:51;;;;;;;11.93;3.60;;;26.80;81.30;;;;;;5036932;28;21221;-73
2022/09/19 07:45:19;;;;;;;9.90;3.03;;;27.40;81.00;;;;;;5047040;28;20457;-69
2022/09/19 07:47:48;;;;;;;17.63;3.10;;;27.50;80.10;;;;;;5050629;28;20496;-71
2022/09/19 07:50:17;;;;;;;14.33;4.17;;;27.60;79.40;;;;;;5041438;28;20461;-72
2022/09/19 07:52:46;;;;;;;16.33;3.17;;;27.90;79.00;;;;;;5043344;28;20464;-72
2022/09/19 07:55:13;;;;;;;6.27;2.63;;;27.80;79.10;;;;;;5041282;28;20459;-72
2022/09/19 07:57:50;;;;;;;12.27;3.03;;;27.40;79.10;;;;;;5037707;28;20472;-73
2022/09/19 08:00:17;;;;;;;11.43;3.40;;;27.10;80.60;;;;;;5042923;28;20874;-71
2022/09/19 08:02:55;;;;;;;8.60;3.20;;;27.00;80.60;;;;;;5036692;28;20449;-70
2022/09/19 08:05:22;;;;;;;13.07;3.40;;;27.30;80.50;;;;;;5034072;28;20457;-72
2022/09/19 08:07:50;;;;;;;11.10;2.73;;;27.30;79.30;;;;;;5039553;28;20605;-73
2022/09/19 08:10:17;;;;;;;13.40;3.27;;;27.30;79.80;;;;;;5039908;28;20520;-69
2022/09/19 08:12:45;;;;;;;19.67;3.57;;;27.30;79.90;;;;;;5050796;28;20467;-70
2022/09/19 08:15:20;;;;;;;14.30;3.67;;;27.30;79.60;;;;;;5054380;28;20540;-70
2022/09/19 08:17:57;;;;;;;14.13;3.27;;;27.50;79.90;;;;;;5048100;28;20841;-71
2022/09/19 08:20:25;;;;;;;11.07;4.13;;;27.70;79.20;;;;;;5025799;28;20454;-72
2022/09/19 08:22:57;;;;;;;6.33;2.70;;;27.90;78.80;;;;;;5048080;28;20443;-70
2022/09/19 08:25:24;;;;;;;8.20;3.00;;;28.00;78.40;;;;;;5048972;28;20951;-72
2022/09/19 08:27:51;;;;;;;15.07;3.40;;;28.10;77.60;;;;;;5038557;28;20494;-71
2022/09/19 08:30:18;;;;;;;21.40;3.97;;;28.40;77.40;;;;;;5042402;28;20549;-69
2022/09/19 08:32:46;;;;;;;11.63;3.70;;;28.10;77.70;;;;;;5038372;28;20446;-71
2022/09/19 08:35:16;;;;;;;13.13;3.90;;;27.90;77.80;;;;;;5046151;28;20940;-70
2022/09/19 08:37:43;;;;;;;9.20;3.60;;;27.90;78.40;;;;;;5041570;28;20462;-72
2022/09/19 08:40:18;;;;;;;11.10;3.53;;;27.80;77.60;;;;;;5037081;28;20453;-70
2022/09/19 08:42:56;;;;;;;12.23;2.60;;;28.10;78.50;;;;;;5028848;28;20933;-71
2022/09/19 08:45:31;;;;;;;13.30;3.83;;;28.30;76.40;;;;;;5021175;28;20860;-71
2022/09/19 08:47:59;;;;;;;12.93;2.90;;;28.30;76.80;;;;;;5038953;28;20486;-73
2022/09/19 08:50:34;;;;;;;8.23;3.00;;;27.90;77.10;;;;;;5046853;28;20908;-72
2022/09/19 08:53:06;;;;;;;17.27;4.03;;;27.70;78.10;;;;;;5049393;28;20452;-76
2022/09/19 08:55:35;;;;;;;17.13;3.13;;;27.30;78.60;;;;;;5037626;28;20460;-72
2022/09/19 08:58:05;;;;;;;10.70;3.37;;;27.50;80.00;;;;;;5047375;28;20497;-76
2022/09/19 09:00:37;;;;;;;15.93;3.27;;;27.90;79.00;;;;;;5049121;28;20963;-75
2022/09/19 09:03:07;;;;;;;12.03;2.93;;;28.30;77.90;;;;;;5046680;28;20529;-73
2022/09/19 09:05:45;;;;;;;8.03;2.83;;;28.50;75.80;;;;;;5054297;28;20450;-75
2022/09/19 09:08:27;;;;;;;9.10;3.13;;;28.50;76.50;;;;;;5054575;28;20600;-75
2022/09/19 09:10:58;;;;;;;11.73;3.97;;;27.90;77.00;;;;;;5050842;28;20454;-74
2022/09/19 09:13:40;;;;;;;10.90;4.00;;;27.20;78.50;;;;;;5057964;28;20509;-70
2022/09/19 09:16:16;;;;;;;13.70;4.50;;;26.60;80.40;;;;;;5038744;28;20454;-69
2022/09/19 09:19:08;;;;;;;16.57;3.67;;;26.30;81.00;;;;;;5059579;28;20547;-74
2022/09/19 09:21:49;;;;;;;16.70;4.20;;;26.30;82.30;;;;;;5047700;28;20524;-72
2022/09/19 09:24:20;;;;;;;14.77;3.60;;;26.10;82.50;;;;;;5041277;28;20532;-72
2022/09/19 09:26:52;;;;;;;9.50;4.03;;;25.90;83.70;;;;;;5049699;28;20500;-72
2022/09/19 09:29:27;;;;;;;12.30;3.40;;;25.60;83.80;;;;;;5056647;28;20485;-72
2022/09/19 09:31:59;;;;;;;17.00;4.17;;;25.10;85.00;;;;;;5056202;28;20521;-73
2022/09/19 09:34:31;;;;;;;9.30;3.07;;;24.00;87.20;;;;;;5055513;28;20445;-73
2022/09/19 09:37:04;;;;;;;9.27;2.80;;;23.20;90.10;;;;;;5057893;28;20871;-73
2022/09/19 09:39:49;;;;;;;11.17;6.10;;;22.60;92.10;;;;;;5054371;28;20445;-72
2022/09/19 09:42:24;;;;;;;16.40;3.50;;;22.20;93.70;;;;;;5055977;28;20452;-72
2022/09/19 09:45:00;;;;;;;18.47;3.80;;;21.90;94.30;;;;;;5048313;28;20446;-72
2022/09/19 09:47:43;;;;;;;24.63;3.17;;;21.60;95.10;;;;;;5025167;28;20844;-70
2022/09/19 09:50:34;;;;;;;10.33;3.10;;;21.30;96.30;;;;;;5037912;28;20557;-74
2022/09/19 09:53:13;;;;;;;13.90;3.47;;;21.10;97.00;;;;;;5051695;28;20531;-75
2022/09/19 09:58:41;;;;;;;13.67;4.73;;;21.00;97.50;;;;;;5035803;28;20764;-71
2022/09/19 10:04:21;;;;;;;10.23;2.73;;;20.70;97.80;;;;;;5060694;28;20410;-70
2022/09/19 10:06:53;;;;;;;12.00;3.20;;;20.30;98.70;;;;;;5059003;28;20486;-74
2022/09/19 10:09:26;;;;;;;11.43;3.00;;;20.00;99.40;;;;;;5055478;28;20452;-71
2022/09/19 10:11:57;;;;;;;14.83;2.43;;;19.40;98.10;;;;;;5028438;28;20796;-69
2022/09/19 10:14:28;;;;;;;10.23;1.73;;;18.80;99.80;;;;;;5054226;28;20869;-73
2022/09/19 10:16:59;;;;;;;8.20;3.77;;;18.20;99.90;;;;;;5046477;28;20549;-72
2022/09/19 10:19:29;;;;;;;7.60;2.33;;;17.80;99.90;;;;;;5050657;28;20536;-73
2022/09/19 10:21:59;;;;;;;4.40;1.43;;;17.50;99.90;;;;;;5037273;28;20479;-70
2022/09/19 10:24:50;;;;;;;4.60;1.50;;;17.40;99.90;;;;;;5050345;28;20556;-74
2022/09/19 10:27:26;;;;;;;4.23;1.80;;;17.40;99.90;;;;;;5048989;28;20532;-72
2022/09/19 10:29:58;;;;;;;4.73;1.40;;;17.30;99.90;;;;;;5053755;28;20946;-71
2022/09/19 10:32:30;;;;;;;5.30;1.23;;;17.30;99.90;;;;;;5049670;28;20489;-74
2022/09/19 10:34:57;;;;;;;3.40;1.87;;;17.40;99.90;;;;;;5041827;28;20450;-72
2022/09/19 10:37:27;;;;;;;4.80;2.10;;;17.50;99.90;;;;;;5053531;28;20553;-74
2022/09/19 10:40:00;;;;;;;7.20;1.77;;;17.80;99.90;;;;;;5046436;28;20465;-73
2022/09/19 10:42:40;;;;;;;6.83;2.07;;;18.40;99.90;;;;;;5050744;28;20873;-76
2022/09/19 10:45:25;;;;;;;7.40;2.10;;;19.00;99.90;;;;;;5052733;28;20441;-72
2022/09/19 10:47:55;;;;;;;7.37;2.27;;;19.20;99.90;;;;;;5042151;28;20513;-72
2022/09/19 10:50:23;;;;;;;9.00;3.00;;;19.10;99.90;;;;;;5049820;28;20541;-72
2022/09/19 10:52:51;;;;;;;5.57;1.83;;;18.70;99.90;;;;;;5046289;28;20533;-71
2022/09/19 10:55:22;;;;;;;4.57;1.73;;;18.30;99.90;;;;;;5053487;28;20499;-70
2022/09/19 10:57:59;;;;;;;5.30;1.87;;;18.10;99.90;;;;;;5045680;28;20466;-71
2022/09/19 11:00:28;;;;;;;5.87;1.53;;;18.20;99.90;;;;;;5032046;28;20916;-73
2022/09/19 11:03:04;;;;;;;7.80;2.00;;;18.30;99.90;;;;;;5043401;28;20457;-72
2022/09/19 11:05:33;;;;;;;5.43;2.43;;;18.30;99.90;;;;;;5051673;28;20937;-73
2022/09/19 11:08:02;;;;;;;8.40;2.83;;;18.50;99.90;;;;;;5052927;28;20980;-70
2022/09/19 11:10:38;;;;;;;11.57;2.50;;;18.70;99.90;;;;;;5051933;28;20474;-73
2022/09/19 11:13:13;;;;;;;6.17;2.07;;;19.00;99.90;;;;;;5031159;28;20472;-71
2022/09/19 11:16:00;;;;;;;8.17;3.20;;;19.30;99.90;;;;;;5050157;28;20450;-72
2022/09/19 11:18:43;;;;;;;5.40;1.73;;;19.60;99.90;;;;;;5047347;28;20964;-71
2022/09/19 11:21:25;;;;;;;9.63;2.40;;;19.20;99.90;;;;;;5022029;28;20454;-71
2022/09/19 11:24:06;;;;;;;5.03;1.40;;;18.90;99.90;;;;;;5026974;28;20458;-72
2022/09/19 11:26:55;;;;;;;6.80;2.43;;;18.70;99.90;;;;;;5048307;28;20442;-72
2022/09/19 11:29:44;;;;;;;8.77;2.80;;;18.40;99.90;;;;;;5025625;28;20549;-72
2022/09/19 11:32:25;;;;;;;11.13;3.00;;;17.90;99.90;;;;;;5043643;28;20446;-70
2022/09/19 11:34:58;;;;;;;17.23;4.80;;;17.40;99.90;;;;;;5044724;28;20449;-70
2022/09/19 11:37:41;;;;;;;13.70;3.83;;;17.00;99.90;;;;;;5035714;28;20553;-72
2022/09/19 11:40:26;;;;;;;11.47;3.50;;;16.80;99.90;;;;;;5021850;28;20460;-73
2022/09/19 11:43:02;;;;;;;10.53;2.73;;;16.70;99.90;;;;;;5022825;28;20524;-70
2022/09/19 11:45:36;;;;;;;15.07;3.40;;;16.70;99.90;;;;;;5033062;28;20511;-71
2022/09/19 11:48:32;;;;;;;9.93;2.40;;;16.80;99.90;;;;;;5035626;28;20500;-70
2022/09/19 11:51:12;;;;;;;8.37;2.50;;;16.80;99.90;;;;;;5052776;28;21005;-71
2022/09/19 11:54:08;;;;;;;11.83;3.53;;;17.10;99.90;;;;;;5030247;28;20457;-72
2022/09/19 11:56:48;;;;;;;9.07;3.10;;;17.40;99.90;;;;;;5036541;28;20883;-70
2022/09/19 11:59:30;;;;;;;11.93;3.80;;;17.60;99.90;;;;;;5049211;28;20525;-71
2022/09/19 12:02:09;;;;;;;18.33;3.73;;;17.40;99.90;;;;;;5039406;28;20465;-71
2022/09/19 12:04:42;;;;;;;12.83;4.30;;;17.40;99.90;;;;;;5027199;28;20438;-74
2022/09/19 12:07:25;;;;;;;10.70;3.43;;;17.60;99.90;;;;;;5051135;28;20841;-72
2022/09/19 12:09:59;;;;;;;14.50;2.60;;;17.90;99.90;;;;;;5025906;28;20517;-73
2022/09/19 12:12:30;;;;;;;21.50;4.40;;;18.10;99.90;;;;;;5029634;28;20452;-69
2022/09/19 12:15:06;;;;;;;12.53;3.07;;;17.90;99.90;;;;;;5051127;28;20482;-70
2022/09/19 12:17:42;;;;;;;16.47;2.93;;;17.50;99.90;;;;;;5034789;28;20478;-71
2022/09/19 12:20:18;;;;;;;11.47;3.30;;;17.20;99.90;;;;;;5052343;28;20450;-70
2022/09/19 12:22:51;;;;;;;15.33;3.27;;;16.80;99.90;;;;;;5056650;28;20456;-70
2022/09/19 12:25:20;;;;;;;13.80;3.40;;;16.30;99.90;;;;;;5056282;28;20451;-73
2022/09/19 12:27:52;;;;;;;12.32;2.45;;;16.10;99.90;;;;;;5053351;28;20751;-70
2022/09/19 12:30:23;;;;;;;13.57;3.93;;;16.10;99.90;;;;;;5044420;28;20205;-73
2022/09/19 12:32:56;;;;;;;12.63;2.60;;;16.20;99.90;;;;;;5040673;28;20464;-70
2022/09/19 12:35:31;;;;;;;13.25;4.18;;;16.10;99.90;;;;;;5049078;28;20630;-69
2022/09/19 12:38:13;;;;;;;8.02;2.13;;;15.90;99.90;;;;;;5053522;28;20225;-72
2022/09/19 12:40:49;;;;;;;12.38;3.70;;;15.80;99.90;;;;;;5053330;28;20207;-74
2022/09/19 12:43:25;;;;;;;15.88;2.97;;;15.80;99.90;;;;;;5036878;28;20232;-72
2022/09/19 12:46:05;;;;;;;11.20;2.83;;;16.00;99.90;;;;;;5037380;28;20776;-71
2022/09/19 12:48:41;;;;;;;10.65;3.40;;;16.00;99.90;;;;;;5055634;28;20291;-70
2022/09/19 12:51:11;;;;;;;30.35;11.50;;;16.00;99.90;;;;;;5035388;28;20207;-71
2022/09/19 12:53:46;;;;;;;12.15;3.40;;;16.00;99.90;;;;;;5051335;28;20641;-70
2022/09/19 12:56:19;;;;;;;17.83;3.65;;;16.20;99.90;;;;;;5051081;28;20641;-71
2022/09/19 12:59:00;;;;;;;10.77;3.70;;;16.50;99.90;;;;;;5045507;28;20208;-73
2022/09/19 13:01:34;;;;;;;18.20;3.50;;;16.90;99.90;;;;;;5042813;28;20455;-71
2022/09/19 13:04:21;;;;;;;11.00;3.50;;;17.40;99.90;;;;;;5037313;28;20444;-71
2022/09/19 13:06:52;;;;;;;14.03;4.23;;;17.80;99.90;;;;;;5039741;28;20879;-71
2022/09/19 13:09:23;;;;;;;13.37;4.30;;;18.00;99.90;;;;;;5052664;28;20558;-72
2022/09/19 13:11:55;;;;;;;9.40;3.40;;;18.10;99.90;;;;;;5052328;28;20465;-73
2022/09/19 13:14:32;;;;;;;10.27;3.70;;;18.20;99.90;;;;;;5053430;28;20438;-74
2022/09/19 13:25:35;;;;;;;11.90;3.53;;;18.00;99.90;;;;;;5049548;28;20433;-71
2022/09/19 13:28:44;;;;;;;14.70;3.47;;;18.00;99.90;;;;;;5054069;28;20564;-71
2022/09/19 13:31:17;;;;;;;8.60;3.20;;;18.00;99.90;;;;;;4948817;29;20455;-71